Time;durP1;ratioP1;P1;durP2;ratioP2;P2;SDS_P1;SDS_P2;PMS_P1;PMS_P2;Temp;Humidity;BMP_temperature;BMP_pressure;BME280_temperature;BME280_humidity;BME280_pressure;Samples;Min_cycle;Max_cycle;Signal;HPM_P1;HPM_P2
2024/04/04 00:00:44;;;;;;;5.30;3.40;;;;;;;12.50;59.88;99483.00;87103;272;136251;-71
2024/04/04 00:02:45;;;;;;;7.20;5.40;;;;;;;12.46;59.99;99485.67;87160;268;24833;-73
2024/04/04 00:04:45;;;;;;;4.30;3.50;;;;;;;12.43;60.48;99487.88;86972;272;138498;-72
2024/04/04 00:06:46;;;;;;;1.40;1.20;;;;;;;12.40;60.65;99488.16;87230;273;24014;-74
2024/04/04 00:08:47;;;;;;;1.60;0.50;;;;;;;12.38;60.75;99489.21;87280;273;136050;-73
2024/04/04 00:10:48;;;;;;;3.50;0.20;;;;;;;12.37;60.79;99492.38;87512;272;22525;-75
2024/04/04 00:12:49;;;;;;;2.70;0.40;;;;;;;12.37;60.82;99492.48;87068;280;136089;-71
2024/04/04 00:14:50;;;;;;;2.10;0.70;;;;;;;12.36;61.29;99494.30;87779;271;22745;-72
2024/04/04 00:16:50;;;;;;;1.40;0.60;;;;;;;12.36;61.21;99500.59;88234;280;137067;-74
2024/04/04 00:18:51;;;;;;;1.40;0.80;;;;;;;12.36;61.21;99502.93;87596;276;25130;-72
2024/04/04 00:20:52;;;;;;;2.70;1.20;;;;;;;12.35;61.41;99500.67;88162;272;137616;-73
2024/04/04 00:22:53;;;;;;;1.00;0.40;;;;;;;12.35;61.49;99499.11;87327;271;24908;-70
2024/04/04 00:24:54;;;;;;;3.30;0.40;;;;;;;12.35;61.67;99495.26;87156;276;137090;-75
2024/04/04 00:26:55;;;;;;;4.80;0.50;;;;;;;12.34;61.82;99492.91;87345;274;22558;-73
2024/04/04 00:28:55;;;;;;;2.90;0.50;;;;;;;12.31;61.76;99491.61;87068;273;135835;-70
2024/04/04 00:30:56;;;;;;;1.70;0.50;;;;;;;12.30;61.89;99490.23;87125;280;25067;-72
2024/04/04 00:32:57;;;;;;;2.20;0.70;;;;;;;12.28;61.79;99489.44;87040;276;142014;-74
2024/04/04 00:34:58;;;;;;;9.00;3.20;;;;;;;12.26;61.98;99493.60;87135;268;24052;-74
2024/04/04 00:37:00;;;;;;;2.90;2.00;;;;;;;12.23;62.23;99494.95;86955;271;140290;-75
2024/04/04 00:39:04;;;;;;;1.00;1.00;;;;;;;12.18;62.30;99491.30;87142;273;25234;-73
2024/04/04 00:41:04;;;;;;;1.10;0.90;;;;;;;12.15;62.65;99491.33;87128;278;136561;-73
2024/04/04 00:43:06;;;;;;;0.90;0.50;;;;;;;12.10;62.67;99492.52;87071;275;22554;-71
2024/04/04 00:45:06;;;;;;;1.20;0.50;;;;;;;12.06;62.93;99490.00;87353;272;136996;-72
2024/04/04 00:47:08;;;;;;;1.00;0.40;;;;;;;12.03;63.13;99492.41;87001;273;22678;-68
2024/04/04 00:49:09;;;;;;;3.40;0.40;;;;;;;11.99;63.36;99492.98;86896;280;137654;-72
2024/04/04 00:51:09;;;;;;;0.60;0.20;;;;;;;11.96;63.50;99496.28;87034;271;22560;-73
2024/04/04 00:53:10;;;;;;;0.90;0.30;;;;;;;11.93;64.01;99495.70;86985;273;137063;-71
2024/04/04 00:55:11;;;;;;;1.20;0.20;;;;;;;11.87;64.10;99490.58;87064;269;25550;-72
2024/04/04 00:57:12;;;;;;;1.70;0.30;;;;;;;11.82;64.25;99488.03;87063;273;135998;-70
2024/04/04 00:59:13;;;;;;;1.70;0.40;;;;;;;11.79;64.56;99487.31;87064;273;22550;-71
2024/04/04 01:01:14;;;;;;;1.30;0.60;;;;;;;11.76;64.92;99483.44;86974;273;136931;-71
2024/04/04 01:03:15;;;;;;;1.80;0.70;;;;;;;11.74;65.29;99478.55;87147;279;22568;-74
2024/04/04 01:05:16;;;;;;;3.20;0.50;;;;;;;11.71;65.39;99485.56;87089;271;137047;-70
2024/04/04 01:07:17;;;;;;;1.90;0.30;;;;;;;11.69;65.59;99486.48;87267;273;24017;-70
2024/04/04 01:09:17;;;;;;;1.70;0.20;;;;;;;11.68;65.61;99488.09;87074;271;136486;-71
2024/04/04 01:11:18;;;;;;;1.80;0.20;;;;;;;11.66;65.90;99487.56;87196;270;22561;-72
2024/04/04 01:13:19;;;;;;;0.80;0.40;;;;;;;11.65;66.01;99487.20;87196;271;135625;-74
2024/04/04 01:15:19;;;;;;;1.10;0.40;;;;;;;11.64;66.34;99487.41;87251;279;24069;-73
2024/04/04 01:17:20;;;;;;;1.00;0.30;;;;;;;11.62;66.52;99489.27;87096;276;138586;-72
2024/04/04 01:19:21;;;;;;;2.20;0.80;;;;;;;11.60;66.61;99490.15;87081;269;25189;-74
2024/04/04 01:21:22;;;;;;;1.40;0.50;;;;;;;11.58;66.70;99490.98;87038;280;136832;-77
2024/04/04 01:23:22;;;;;;;0.80;0.30;;;;;;;11.55;66.94;99490.63;87116;268;24036;-72
2024/04/04 01:25:23;;;;;;;0.60;0.60;;;;;;;11.52;67.26;99494.27;86935;280;136293;-74
2024/04/04 01:27:24;;;;;;;2.40;0.20;;;;;;;11.49;67.38;99499.74;87161;272;22579;-72
2024/04/04 01:29:24;;;;;;;1.20;0.50;;;;;;;11.47;67.68;99502.64;87039;276;137024;-71
2024/04/04 01:31:25;;;;;;;3.70;0.70;;;;;;;11.43;68.05;99503.76;87260;278;22581;-74
2024/04/04 01:33:26;;;;;;;1.30;0.30;;;;;;;11.40;68.60;99499.30;87138;271;135956;-72
2024/04/04 01:35:27;;;;;;;2.30;0.40;;;;;;;11.36;68.98;99497.61;87153;271;25339;-74
2024/04/04 01:37:28;;;;;;;0.80;0.40;;;;;;;11.31;69.15;99498.25;87008;271;137053;-73
2024/04/04 01:39:28;;;;;;;2.00;1.00;;;;;;;11.27;69.43;99494.58;87159;280;23735;-74
2024/04/04 01:41:29;;;;;;;2.10;1.40;;;;;;;11.22;69.53;99500.89;87162;267;137149;-74
2024/04/04 01:43:31;;;;;;;2.30;1.80;;;;;;;11.21;69.76;99505.36;87309;278;26192;-76
2024/04/04 01:45:31;;;;;;;1.50;1.00;;;;;;;11.17;70.11;99509.98;87183;270;135745;-74
2024/04/04 01:47:32;;;;;;;2.70;1.60;;;;;;;11.13;70.43;99511.17;87089;281;22559;-71
2024/04/04 01:49:33;;;;;;;3.40;1.50;;;;;;;11.11;70.56;99515.75;86972;270;136560;-72
2024/04/04 01:51:34;;;;;;;1.40;0.70;;;;;;;11.08;71.19;99522.66;87003;277;22581;-70
2024/04/04 01:53:35;;;;;;;3.80;0.30;;;;;;;11.06;72.10;99526.06;87054;272;136138;-72
2024/04/04 01:55:36;;;;;;;1.60;0.20;;;;;;;11.02;73.65;99525.70;87205;268;23541;-75
2024/04/04 01:57:36;;;;;;;1.50;0.20;;;;;;;10.98;74.17;99536.28;87180;274;136092;-72
2024/04/04 01:59:37;;;;;;;1.70;0.30;;;;;;;10.95;75.02;99533.13;87853;279;22500;-72
2024/04/04 02:01:38;;;;;;;0.60;0.40;;;;;;;10.92;76.33;99536.82;89448;267;135641;-68
2024/04/04 02:03:38;;;;;;;2.00;0.80;;;;;;;10.88;78.21;99534.29;89594;268;22647;-71
2024/04/04 02:05:39;;;;;;;1.20;0.50;;;;;;;10.84;78.91;99540.45;89663;267;136042;-66
2024/04/04 02:07:40;;;;;;;2.70;0.30;;;;;;;10.81;80.00;99542.35;89832;266;23752;-74
2024/04/04 02:09:40;;;;;;;1.40;0.30;;;;;;;10.81;80.64;99548.63;89554;266;138085;-74
2024/04/04 02:11:41;;;;;;;1.40;0.60;;;;;;;10.81;81.64;99548.87;88421;276;22570;-74
2024/04/04 02:13:42;;;;;;;0.50;0.50;;;;;;;10.80;82.01;99554.33;87251;272;138418;-73
2024/04/04 02:15:42;;;;;;;1.70;0.60;;;;;;;10.77;82.62;99550.02;87094;268;24484;-72
2024/04/04 02:17:43;;;;;;;1.40;0.40;;;;;;;10.77;83.24;99553.52;87069;268;137312;-73
2024/04/04 02:19:44;;;;;;;0.80;0.40;;;;;;;10.76;83.73;99548.67;87203;280;25267;-70
2024/04/04 02:21:45;;;;;;;1.70;0.30;;;;;;;10.72;83.67;99546.69;87176;270;137237;-73
2024/04/04 02:23:46;;;;;;;0.50;0.30;;;;;;;10.68;83.54;99556.61;87329;270;22846;-69
2024/04/04 02:25:47;;;;;;;1.50;0.80;;;;;;;10.63;83.83;99554.73;87227;278;136025;-70
2024/04/04 02:27:47;;;;;;;5.80;0.50;;;;;;;10.60;83.88;99563.26;87265;266;23123;-74
2024/04/04 02:29:48;;;;;;;1.40;0.60;;;;;;;10.53;83.96;99564.71;87062;276;135821;-69
2024/04/04 02:31:49;;;;;;;0.80;0.50;;;;;;;10.48;84.02;99567.38;87250;276;22591;-71
2024/04/04 02:33:49;;;;;;;3.10;0.30;;;;;;;10.39;84.89;99563.94;87080;272;136134;-71
2024/04/04 02:35:54;;;;;;;0.20;0.20;;;;;;;10.34;84.60;99566.85;87154;271;23740;-71
2024/04/04 02:37:55;;;;;;;0.60;0.60;;;;;;;10.31;84.05;99574.68;87256;278;136558;-75
2024/04/04 02:39:57;;;;;;;0.50;0.40;;;;;;;10.30;83.52;99578.96;87166;279;25252;-72
2024/04/04 02:41:58;;;;;;;0.90;0.40;;;;;;;10.29;82.74;99582.16;87105;280;136536;-73
2024/04/04 02:43:59;;;;;;;0.60;0.40;;;;;;;10.28;82.36;99581.09;87159;271;24208;-71
2024/04/04 02:46:04;;;;;;;1.00;0.30;;;;;;;10.26;81.93;99574.81;87219;278;136008;-75
2024/04/04 02:48:05;;;;;;;1.80;0.20;;;;;;;10.22;80.90;99578.62;87135;270;136101;-72
2024/04/04 02:50:07;;;;;;;1.10;0.60;;;;;;;10.17;79.52;99591.81;87153;272;22578;-73
2024/04/04 02:52:08;;;;;;;0.30;0.30;;;;;;;10.11;79.38;99596.65;87166;268;136623;-74
2024/04/04 02:54:09;;;;;;;1.60;0.30;;;;;;;10.07;79.30;99593.03;87058;272;24129;-70
2024/04/04 02:56:10;;;;;;;0.90;0.60;;;;;;;10.01;78.43;99602.33;87057;272;136086;-73
2024/04/04 02:58:11;;;;;;;0.20;0.20;;;;;;;9.93;78.02;99601.70;87153;276;24222;-80
2024/04/04 03:00:13;;;;;;;2.70;0.50;;;;;;;9.85;76.12;99602.74;87102;268;137511;-79
2024/04/04 03:02:14;;;;;;;2.70;0.60;;;;;;;9.77;75.53;99603.63;87339;272;25229;-75
2024/04/04 03:04:15;;;;;;;2.80;0.40;;;;;;;9.71;74.71;99609.80;87182;276;136041;-71
2024/04/04 03:06:18;;;;;;;6.70;1.60;;;;;;;9.61;73.38;99614.72;87215;268;22571;-72
2024/04/04 03:08:19;;;;;;;2.20;1.10;;;;;;;9.51;73.07;99623.00;87179;268;136721;-76
2024/04/04 03:10:20;;;;;;;4.50;3.00;;;;;;;9.41;73.33;99632.03;87256;270;22544;-74
2024/04/04 03:12:21;;;;;;;6.40;4.00;;;;;;;9.36;73.71;99638.60;87137;272;136225;-71
2024/04/04 03:14:22;;;;;;;3.60;2.10;;;;;;;9.32;74.30;99635.92;87220;278;22807;-72
2024/04/04 03:16:22;;;;;;;0.90;0.90;;;;;;;9.30;75.43;99644.87;87016;269;136913;-73
2024/04/04 03:18:24;;;;;;;0.40;0.40;;;;;;;9.27;76.16;99644.52;87358;278;22542;-72
2024/04/04 03:20:25;;;;;;;2.00;0.40;;;;;;;9.23;76.87;99651.30;87182;266;135864;-71
2024/04/04 03:22:26;;;;;;;1.00;0.20;;;;;;;9.18;76.84;99657.58;87269;275;22679;-71
2024/04/04 03:24:27;;;;;;;0.60;0.10;;;;;;;9.11;76.79;99658.73;87135;270;136647;-69
2024/04/04 03:26:27;;;;;;;0.50;0.20;;;;;;;9.06;76.29;99666.34;87283;274;22610;-71
2024/04/04 03:28:28;;;;;;;0.20;0.10;;;;;;;9.00;76.01;99665.92;87158;266;137179;-69
2024/04/04 03:30:29;;;;;;;0.40;0.40;;;;;;;8.94;75.53;99668.34;87248;268;24270;-70
2024/04/04 03:32:31;;;;;;;0.50;0.10;;;;;;;8.90;74.74;99667.08;87283;270;136354;-75
2024/04/04 03:34:32;;;;;;;0.20;0.20;;;;;;;8.83;71.85;99667.80;87253;276;22575;-75
2024/04/04 03:36:32;;;;;;;0.30;0.10;;;;;;;8.70;70.46;99669.60;87114;272;135727;-72
2024/04/04 03:38:33;;;;;;;2.20;0.10;;;;;;;8.59;70.32;99679.33;87157;266;25229;-72
2024/04/04 03:40:36;;;;;;;0.30;0.10;;;;;;;8.50;70.06;99677.96;87180;278;135762;-75
2024/04/04 03:42:39;;;;;;;0.10;0.10;;;;;;;8.42;70.08;99685.81;86508;278;876085;-71
2024/04/04 03:44:40;;;;;;;0.10;0.10;;;;;;;8.36;69.97;99691.22;87109;278;135853;-71
2024/04/04 03:46:41;;;;;;;0.20;0.10;;;;;;;8.34;69.48;99695.48;87283;271;22553;-71
2024/04/04 03:48:42;;;;;;;0.10;0.10;;;;;;;8.31;69.38;99700.73;87182;271;135968;-72
2024/04/04 03:50:43;;;;;;;0.10;0.10;;;;;;;8.28;69.40;99705.88;87208;274;22587;-71
2024/04/04 03:52:44;;;;;;;3.20;0.10;;;;;;;8.26;69.42;99699.69;87198;271;136013;-69
2024/04/04 03:54:45;;;;;;;1.20;0.20;;;;;;;8.22;69.49;99708.08;87120;271;25392;-72
2024/04/04 03:56:46;;;;;;;0.20;0.10;;;;;;;8.20;69.46;99714.21;87021;271;135862;-70
2024/04/04 03:58:47;;;;;;;0.40;0.10;;;;;;;8.17;69.40;99716.30;87243;272;23460;-71
2024/04/04 04:00:48;;;;;;;0.40;0.20;;;;;;;8.13;69.41;99719.20;87216;279;136710;-73
2024/04/04 04:02:49;;;;;;;0.10;0.10;;;;;;;8.10;69.41;99716.45;87241;279;25073;-71
2024/04/04 04:04:50;;;;;;;0.30;0.10;;;;;;;8.05;69.67;99721.15;87047;268;135597;-72
2024/04/04 04:06:51;;;;;;;0.30;0.30;;;;;;;8.02;70.01;99719.80;87182;271;24052;-73
2024/04/04 04:08:51;;;;;;;0.10;0.10;;;;;;;7.99;70.06;99722.56;87084;279;136472;-71
2024/04/04 04:10:52;;;;;;;0.30;0.10;;;;;;;7.95;70.50;99725.86;87279;271;22598;-71
2024/04/04 04:12:59;;;;;;;0.10;0.10;;;;;;;7.94;71.00;99731.84;87175;272;136701;-72
2024/04/04 04:15:00;;;;;;;0.10;0.10;;;;;;;7.94;71.38;99734.42;87192;268;22542;-71
2024/04/04 04:17:01;;;;;;;0.30;0.10;;;;;;;7.96;71.62;99737.71;87136;270;135894;-68
2024/04/04 04:19:02;;;;;;;0.20;0.20;;;;;;;7.98;71.77;99744.27;87179;267;24025;-69
2024/04/04 04:21:20;;;;;;;0.30;0.20;;;;;;;8.01;71.68;99746.79;87026;279;135794;-70
2024/04/04 04:23:21;;;;;;;0.20;0.20;;;;;;;8.02;71.57;99752.64;87127;271;24130;-73
2024/04/04 04:25:22;;;;;;;0.20;0.20;;;;;;;8.02;71.49;99752.84;87081;270;135680;-71
2024/04/04 04:27:23;;;;;;;0.30;0.20;;;;;;;8.00;70.90;99755.44;87210;271;25182;-73
2024/04/04 04:29:23;;;;;;;0.20;0.20;;;;;;;7.96;70.62;99755.48;86975;272;135680;-70
2024/04/04 04:31:26;;;;;;;1.20;0.30;;;;;;;7.92;70.12;99759.01;87076;271;22640;-69
2024/04/04 04:33:27;;;;;;;0.80;0.20;;;;;;;7.88;69.51;99764.07;87215;274;136584;-72
2024/04/04 04:35:28;;;;;;;0.30;0.20;;;;;;;7.84;69.56;99768.65;87103;272;22552;-71
2024/04/04 04:37:28;;;;;;;1.80;0.50;;;;;;;7.79;69.70;99765.70;87059;271;137364;-83
2024/04/04 04:39:30;;;;;;;0.40;0.20;;;;;;;7.75;69.99;99771.77;87235;275;22595;-80
2024/04/04 04:41:31;;;;;;;0.40;0.20;;;;;;;7.75;70.35;99775.52;87145;268;135632;-77
2024/04/04 04:43:33;;;;;;;0.40;0.30;;;;;;;7.74;70.30;99771.23;87151;266;25120;-74
2024/04/04 04:45:34;;;;;;;0.60;0.10;;;;;;;7.69;70.17;99773.90;87027;271;136870;-81
2024/04/04 04:47:35;;;;;;;1.30;0.30;;;;;;;7.63;70.62;99778.30;87244;276;24017;-75
2024/04/04 04:49:36;;;;;;;0.40;0.20;;;;;;;7.59;70.60;99775.30;87166;278;135501;-77
2024/04/04 04:51:36;;;;;;;0.80;0.80;;;;;;;7.54;70.90;99779.16;87283;276;25079;-74
2024/04/04 04:53:39;;;;;;;1.80;0.20;;;;;;;7.54;71.11;99784.34;87124;278;135845;-72
2024/04/04 04:55:40;;;;;;;0.60;0.20;;;;;;;7.53;70.78;99786.90;87427;267;22572;-76
2024/04/04 04:57:40;;;;;;;2.50;0.50;;;;;;;7.53;70.85;99788.12;87112;278;136680;-75
2024/04/04 04:59:41;;;;;;;0.30;0.20;;;;;;;7.53;71.04;99786.94;87217;268;23729;-71
2024/04/04 05:01:42;;;;;;;1.40;0.20;;;;;;;7.56;71.42;99790.69;87222;278;135293;-78
2024/04/04 05:03:42;;;;;;;0.20;0.20;;;;;;;7.58;71.05;99790.07;87473;276;25082;-71
2024/04/04 05:05:43;;;;;;;0.50;0.20;;;;;;;7.60;71.08;99795.48;87133;270;135411;-72
2024/04/04 05:07:44;;;;;;;0.50;0.30;;;;;;;7.63;71.19;99796.14;87099;272;22565;-71
2024/04/04 05:09:45;;;;;;;0.50;0.30;;;;;;;7.64;71.01;99794.85;87019;271;135184;-75
2024/04/04 05:11:45;;;;;;;0.20;0.20;;;;;;;7.65;70.62;99796.72;87042;268;22635;-75
2024/04/04 05:13:46;;;;;;;0.70;0.20;;;;;;;7.67;71.07;99795.75;87158;274;136170;-75
2024/04/04 05:15:56;;;;;;;0.90;0.30;;;;;;;7.65;71.25;99795.27;87132;267;22547;-76
2024/04/04 05:17:57;;;;;;;0.50;0.20;;;;;;;7.66;71.26;99800.42;87205;270;135546;-72
2024/04/04 05:19:57;;;;;;;0.40;0.30;;;;;;;7.67;71.22;99800.02;87269;274;24971;-72
2024/04/04 05:21:58;;;;;;;2.30;0.60;;;;;;;7.67;71.58;99800.03;86894;274;135611;-70
2024/04/04 05:24:00;;;;;;;0.80;0.40;;;;;;;7.67;71.71;99802.35;87039;270;22648;-71
2024/04/04 05:26:01;;;;;;;0.40;0.30;;;;;;;7.68;71.45;99799.02;87234;267;135127;-71
2024/04/04 05:28:02;;;;;;;0.40;0.30;;;;;;;7.68;71.33;99812.12;87216;268;22642;-70
2024/04/04 05:30:10;;;;;;;1.10;0.90;;;;;;;7.68;71.54;99816.98;87259;270;24030;-72
2024/04/04 05:32:10;;;;;;;0.70;0.70;;;;;;;7.68;71.61;99821.84;87257;278;135478;-72
2024/04/04 05:34:12;;;;;;;2.20;0.40;;;;;;;7.67;71.57;99826.23;87277;274;22561;-71
2024/04/04 05:36:13;;;;;;;2.70;1.00;;;;;;;7.66;71.67;99830.21;87142;279;135576;-67
2024/04/04 05:38:14;;;;;;;0.70;0.30;;;;;;;7.66;71.86;99828.58;87316;275;22559;-69
2024/04/04 05:40:15;;;;;;;1.50;0.80;;;;;;;7.68;71.54;99834.23;87253;270;137064;-75
2024/04/04 05:42:15;;;;;;;9.30;2.40;;;;;;;7.68;71.16;99835.63;87219;271;22632;-74
2024/04/04 05:44:16;;;;;;;1.20;1.10;;;;;;;7.68;71.38;99838.25;87267;278;136839;-72
2024/04/04 05:46:17;;;;;;;0.90;0.60;;;;;;;7.71;71.18;99842.48;87285;271;25285;-70
2024/04/04 05:48:17;;;;;;;0.30;0.30;;;;;;;7.72;70.98;99837.41;87300;272;135967;-65
2024/04/04 05:50:18;;;;;;;0.30;0.20;;;;;;;7.74;70.77;99842.52;87457;279;25122;-74
2024/04/04 05:52:19;;;;;;;0.90;0.30;;;;;;;7.75;70.37;99846.95;87230;267;135806;-71
2024/04/04 05:54:20;;;;;;;0.90;0.40;;;;;;;7.77;70.38;99844.58;87332;274;24289;-74
2024/04/04 05:56:21;;;;;;;0.90;0.20;;;;;;;7.80;70.35;99844.54;87217;272;135766;-74
2024/04/04 05:58:22;;;;;;;0.30;0.20;;;;;;;7.83;69.69;99853.11;87409;277;22955;-74
2024/04/04 06:00:23;;;;;;;0.30;0.10;;;;;;;7.82;69.05;99856.10;87168;274;135867;-75
2024/04/04 06:02:23;;;;;;;1.70;0.50;;;;;;;7.77;68.89;99856.82;87509;270;22564;-73
2024/04/04 06:04:28;;;;;;;0.40;0.20;;;;;;;7.73;69.56;99857.16;87261;279;137001;-70
2024/04/04 06:06:29;;;;;;;0.40;0.30;;;;;;;7.71;69.22;99857.64;87363;269;22644;-74
2024/04/04 06:08:29;;;;;;;0.80;0.20;;;;;;;7.71;68.83;99867.55;87092;270;135708;-72
2024/04/04 06:10:30;;;;;;;0.20;0.20;;;;;;;7.69;68.49;99862.77;87262;271;26289;-70
2024/04/04 06:12:31;;;;;;;0.40;0.20;;;;;;;7.66;68.62;99868.77;87544;264;135733;-74
2024/04/04 06:14:33;;;;;;;0.60;0.40;;;;;;;7.62;68.79;99867.98;87197;276;22754;-71
2024/04/04 06:16:35;;;;;;;0.40;0.30;;;;;;;7.60;69.31;99872.56;87035;272;136477;-71
2024/04/04 06:18:35;;;;;;;0.80;0.30;;;;;;;7.59;69.43;99873.87;87175;272;24260;-70
2024/04/04 06:20:36;;;;;;;1.00;0.50;;;;;;;7.61;69.72;99873.02;87191;275;135348;-71
2024/04/04 06:22:37;;;;;;;0.30;0.20;;;;;;;7.64;69.41;99885.96;87271;280;24010;-74
2024/04/04 06:24:38;;;;;;;0.60;0.20;;;;;;;7.63;69.56;99889.25;87043;276;135219;-71
2024/04/04 06:26:40;;;;;;;0.30;0.30;;;;;;;7.64;69.76;99888.09;87203;275;25016;-74
2024/04/04 06:28:41;;;;;;;0.40;0.20;;;;;;;7.63;69.28;99890.61;87049;279;137846;-71
2024/04/04 06:30:41;;;;;;;1.20;0.40;;;;;;;7.59;68.62;99894.59;87264;270;24004;-73
2024/04/04 06:32:42;;;;;;;0.80;0.40;;;;;;;7.58;68.50;99899.75;87225;270;136251;-76
2024/04/04 06:34:43;;;;;;;0.90;0.20;;;;;;;7.58;68.31;99901.14;87343;271;25226;-74
2024/04/04 06:36:43;;;;;;;0.70;0.10;;;;;;;7.59;68.35;99906.66;87193;266;136371;-75
2024/04/04 06:38:45;;;;;;;5.90;0.40;;;;;;;7.59;68.57;99907.69;87307;272;22601;-71
2024/04/04 06:40:45;;;;;;;1.00;0.40;;;;;;;7.62;67.97;99907.25;87035;271;136429;-70
2024/04/04 06:42:46;;;;;;;1.00;0.30;;;;;;;7.65;67.26;99911.69;87226;270;22564;-71
2024/04/04 06:44:47;;;;;;;1.30;0.20;;;;;;;7.64;65.50;99914.37;87007;277;136195;-71
2024/04/04 06:46:48;;;;;;;0.20;0.10;;;;;;;7.62;64.63;99919.25;87184;271;24548;-71
2024/04/04 06:48:50;;;;;;;0.40;0.20;;;;;;;7.59;64.18;99919.15;87128;271;135903;-69
2024/04/04 06:50:50;;;;;;;1.80;0.10;;;;;;;7.58;62.92;99923.01;87223;266;24035;-68
2024/04/04 06:52:51;;;;;;;0.20;0.20;;;;;;;7.55;61.45;99922.80;87159;266;135649;-69
2024/04/04 06:54:52;;;;;;;0.80;0.10;;;;;;;7.51;61.40;99935.73;87778;274;22524;-71
2024/04/04 06:56:53;;;;;;;0.50;0.10;;;;;;;7.49;61.18;99933.47;87147;273;136969;-70
2024/04/04 06:58:54;;;;;;;0.70;0.20;;;;;;;7.50;61.08;99939.04;87213;270;23740;-72
2024/04/04 07:00:58;;;;;;;0.30;0.10;;;;;;;7.50;60.81;99944.34;87164;278;135663;-72
2024/04/04 07:03:00;;;;;;;1.80;0.20;;;;;;;7.53;60.84;99946.77;87218;281;22627;-65
2024/04/04 07:05:01;;;;;;;0.60;0.10;;;;;;;7.55;60.03;99943.00;87152;270;135751;-70
2024/04/04 07:07:01;;;;;;;0.50;0.20;;;;;;;7.55;59.89;99942.48;87166;272;22520;-74
2024/04/04 07:09:02;;;;;;;2.20;0.60;;;;;;;7.57;59.86;99943.08;87114;279;137309;-69
2024/04/04 07:11:05;;;;;;;0.60;0.20;;;;;;;7.65;59.96;99943.85;87254;270;24205;-78
2024/04/04 07:13:06;;;;;;;0.50;0.20;;;;;;;7.75;59.53;99941.89;87336;271;135461;-76
2024/04/04 07:15:07;;;;;;;0.60;0.20;;;;;;;7.86;58.78;99945.81;87248;268;22552;-77
2024/04/04 07:17:08;;;;;;;0.80;0.30;;;;;;;7.90;58.05;99948.84;87448;268;135519;-78
2024/04/04 07:19:08;;;;;;;0.40;0.20;;;;;;;7.96;58.10;99952.59;87485;272;22553;-76
2024/04/04 07:21:10;;;;;;;0.80;0.30;;;;;;;8.04;57.60;99962.10;87566;279;135314;-76
2024/04/04 07:23:11;;;;;;;0.30;0.10;;;;;;;8.12;57.21;99965.95;87634;269;22565;-77
2024/04/04 07:25:12;;;;;;;0.40;0.10;;;;;;;8.18;56.69;99965.50;87465;271;135813;-76
2024/04/04 07:27:13;;;;;;;0.10;0.10;;;;;;;8.23;57.25;99972.19;87880;271;24024;-75
2024/04/04 07:29:14;;;;;;;0.10;0.10;;;;;;;8.32;57.31;99975.78;87897;278;135216;-77
2024/04/04 07:31:15;;;;;;;0.80;0.20;;;;;;;8.45;57.02;99971.26;87817;273;22568;-74
2024/04/04 07:33:17;;;;;;;0.60;0.20;;;;;;;8.55;56.99;99976.72;87835;270;136819;-73
2024/04/04 07:35:18;;;;;;;1.00;0.10;;;;;;;8.65;56.39;99975.77;87918;271;24182;-78
2024/04/04 07:37:19;;;;;;;0.70;0.60;;;;;;;8.67;56.27;99974.30;87766;271;135134;-75
2024/04/04 07:39:20;;;;;;;0.90;0.50;;;;;;;8.66;56.45;99976.04;88062;269;22587;-76
2024/04/04 07:41:21;;;;;;;0.50;0.40;;;;;;;8.65;56.56;99982.65;88339;267;135246;-76
2024/04/04 07:44:27;;;;;;;0.80;0.30;;;;;;;8.61;56.52;99981.60;86988;305;603938;-74
2024/04/04 07:46:28;;;;;;;1.80;0.30;;;;;;;8.59;56.68;99989.40;88227;289;23936;-75
2024/04/04 07:48:29;;;;;;;2.30;0.10;;;;;;;8.64;56.67;99988.65;87741;291;134653;-77
2024/04/04 07:50:30;;;;;;;0.40;0.10;;;;;;;8.63;56.38;99990.89;87405;289;22602;-80
2024/04/04 07:52:31;;;;;;;0.10;0.10;;;;;;;8.61;56.41;99993.99;86415;286;135102;-78
2024/04/04 07:54:31;;;;;;;0.10;0.10;;;;;;;8.61;55.99;99991.15;86528;288;22555;-79
2024/04/04 07:56:32;;;;;;;0.30;0.10;;;;;;;8.62;55.22;99991.92;86312;292;134972;-79
2024/04/04 07:58:33;;;;;;;0.60;0.20;;;;;;;8.61;54.96;99998.24;85848;285;901295;-76
2024/04/04 08:00:34;;;;;;;0.60;0.20;;;;;;;8.60;54.86;99998.11;86432;290;135232;-78
2024/04/04 08:02:34;;;;;;;3.00;0.30;;;;;;;8.60;54.78;100002.20;86571;286;24210;-77
2024/04/04 08:04:35;;;;;;;1.00;0.30;;;;;;;8.60;55.03;99996.88;86529;287;135108;-77
2024/04/04 08:06:36;;;;;;;2.40;0.10;;;;;;;8.56;54.56;99994.05;87195;276;22555;-75
2024/04/04 08:08:36;;;;;;;1.60;0.20;;;;;;;8.51;54.96;100009.48;87083;271;136252;-76
2024/04/04 08:10:37;;;;;;;0.40;0.30;;;;;;;8.48;54.95;100011.64;87254;271;25307;-79
2024/04/04 08:12:39;;;;;;;0.40;0.40;;;;;;;8.44;55.53;100009.48;87123;281;135374;-76
2024/04/04 08:14:39;;;;;;;0.80;0.20;;;;;;;8.43;55.88;100017.73;87394;283;22569;-79
2024/04/04 08:16:40;;;;;;;0.20;0.10;;;;;;;8.43;56.42;100018.88;87405;274;135674;-75
2024/04/04 08:18:41;;;;;;;1.10;0.20;;;;;;;8.45;56.89;100018.55;87391;275;23735;-76
2024/04/04 08:20:45;;;;;;;1.30;0.10;;;;;;;8.47;57.30;100024.70;87451;270;135233;-77
2024/04/04 08:22:46;;;;;;;0.50;0.50;;;;;;;8.48;57.64;100028.20;87556;274;22571;-78
2024/04/04 08:24:47;;;;;;;0.30;0.30;;;;;;;8.48;57.41;100034.27;87409;274;135579;-76
2024/04/04 08:26:47;;;;;;;0.30;0.20;;;;;;;8.45;57.50;100036.56;87324;279;22633;-81
2024/04/04 08:28:48;;;;;;;0.30;0.10;;;;;;;8.40;57.38;100043.14;87443;281;135130;-78
2024/04/04 08:31:02;;;;;;;2.80;0.30;;;;;;;8.32;57.65;100047.81;87562;273;22676;-77
2024/04/04 08:33:03;;;;;;;1.00;0.20;;;;;;;8.25;58.02;100044.60;87419;273;135071;-78
2024/04/04 08:35:09;;;;;;;0.40;0.30;;;;;;;8.23;58.11;100052.13;87275;271;22576;-79
2024/04/04 08:37:11;;;;;;;0.70;0.40;;;;;;;8.21;58.33;100054.39;87049;282;135407;-76
2024/04/04 08:39:11;;;;;;;0.70;0.10;;;;;;;8.22;58.73;100060.89;87219;275;22523;-78
2024/04/04 08:41:13;;;;;;;0.20;0.20;;;;;;;8.23;59.00;100060.95;87189;276;135014;-78
2024/04/04 08:43:15;;;;;;;1.70;0.20;;;;;;;8.24;59.20;100058.15;87238;275;22594;-76
2024/04/04 08:45:19;;;;;;;0.50;0.10;;;;;;;8.24;59.62;100066.52;87407;274;135225;-76
2024/04/04 08:47:22;;;;;;;0.30;0.20;;;;;;;8.25;59.90;100063.73;87415;278;22887;-76
2024/04/04 08:49:26;;;;;;;0.30;0.20;;;;;;;8.28;59.50;100070.27;87422;281;135222;-75
2024/04/04 08:51:27;;;;;;;0.90;0.60;;;;;;;8.31;59.63;100078.73;87462;282;22561;-77
2024/04/04 08:53:28;;;;;;;0.70;0.20;;;;;;;8.33;59.26;100081.00;87220;282;135400;-78
2024/04/04 08:55:28;;;;;;;0.40;0.10;;;;;;;8.25;59.37;100075.95;87323;282;25216;-78
2024/04/04 08:57:31;;;;;;;0.20;0.10;;;;;;;8.15;59.73;100072.77;87227;275;135066;-77
2024/04/04 08:59:31;;;;;;;0.30;0.30;;;;;;;8.08;59.94;100074.89;87454;281;22720;-74
2024/04/04 09:01:32;;;;;;;1.80;0.20;;;;;;;8.06;60.21;100079.84;87245;278;135476;-78
2024/04/04 09:03:33;;;;;;;0.30;0.20;;;;;;;8.08;60.40;100081.45;87390;273;24001;-78
2024/04/04 09:05:33;;;;;;;0.40;0.20;;;;;;;8.13;60.16;100088.04;87362;277;136720;-79
2024/04/04 09:07:37;;;;;;;0.40;0.20;;;;;;;8.19;59.99;100081.77;87367;269;22813;-78
2024/04/04 09:09:45;;;;;;;0.50;0.20;;;;;;;8.26;60.04;100082.20;87176;271;134956;-77
2024/04/04 09:11:46;;;;;;;0.60;0.20;;;;;;;8.33;59.29;100085.71;87159;277;22553;-78
2024/04/04 09:13:47;;;;;;;2.50;0.10;;;;;;;8.40;59.12;100086.76;86902;282;137200;-78
2024/04/04 09:15:47;;;;;;;0.20;0.10;;;;;;;8.47;58.70;100083.48;87191;274;22900;-78
2024/04/04 09:17:48;;;;;;;0.20;0.20;;;;;;;8.53;58.12;100077.09;87034;275;135299;-77
2024/04/04 09:19:57;;;;;;;1.10;0.50;;;;;;;8.57;58.00;100080.15;87195;274;22555;-78
2024/04/04 09:21:57;;;;;;;0.20;0.20;;;;;;;8.63;57.63;100083.54;87083;271;137746;-76
2024/04/04 09:23:59;;;;;;;0.10;0.10;;;;;;;8.66;57.99;100080.86;87354;275;22626;-78
2024/04/04 09:26:00;;;;;;;0.10;0.10;;;;;;;8.74;57.67;100087.71;87310;273;135330;-72
2024/04/04 09:28:08;;;;;;;0.30;0.10;;;;;;;8.81;57.11;100088.01;87534;282;22580;-75
2024/04/04 09:30:11;;;;;;;0.10;0.10;;;;;;;8.79;57.09;100089.05;87641;273;22578;-76
2024/04/04 09:32:13;;;;;;;0.30;0.10;;;;;;;8.76;57.33;100088.85;87248;278;136137;-75
2024/04/04 09:34:17;;;;;;;3.00;0.10;;;;;;;8.77;57.69;100088.56;87017;281;24154;-75
2024/04/04 09:36:18;;;;;;;2.00;0.10;;;;;;;8.79;57.57;100081.93;87265;276;136789;-78
2024/04/04 09:38:20;;;;;;;0.80;0.10;;;;;;;8.78;57.54;100084.74;86953;272;22577;-76